Time;durP1;ratioP1;P1;durP2;ratioP2;P2;SDS_P1;SDS_P2;PMS_P1;PMS_P2;Temp;Humidity;BMP_temperature;BMP_pressure;BME280_temperature;BME280_humidity;BME280_pressure;Samples;Min_cycle;Max_cycle;Signal;HPM_P1;HPM_P2
2023/04/14 00:00:38;;;;;;;6.82;4.55;;;;;;;4.22;100.00;99998.72;6129946;28;20067;-89
2023/04/14 00:03:41;;;;;;;6.55;3.97;;;;;;;4.20;100.00;99995.44;6123961;28;20071;-89
2023/04/14 00:06:42;;;;;;;6.15;4.53;;;;;;;4.17;100.00;99988.75;6122927;28;20530;-89
2023/04/14 00:09:44;;;;;;;7.20;4.43;;;;;;;4.13;100.00;99999.31;6121183;28;20052;-89
2023/04/14 00:12:46;;;;;;;8.00;4.45;;;;;;;4.10;100.00;100006.25;6125184;28;20043;-89
2023/04/14 00:15:48;;;;;;;8.02;4.50;;;;;;;4.08;100.00;100010.63;6122002;28;20102;-89
2023/04/14 00:18:50;;;;;;;5.28;4.13;;;;;;;4.04;100.00;100018.59;6121966;28;20628;-89
2023/04/14 00:21:51;;;;;;;8.07;4.90;;;;;;;4.00;100.00;100012.84;6104214;28;20498;-89
2023/04/14 00:24:53;;;;;;;6.63;4.07;;;;;;;3.98;100.00;100011.28;6121011;28;20053;-89
2023/04/14 00:27:55;;;;;;;6.35;4.40;;;;;;;3.95;100.00;100022.53;6103854;28;20336;-89
2023/04/14 00:30:56;;;;;;;7.43;4.60;;;;;;;3.93;100.00;100016.69;6103632;28;20279;-89
2023/04/14 00:33:58;;;;;;;9.63;5.82;;;;;;;3.90;100.00;100022.00;6128891;28;20454;-90
2023/04/14 00:37:00;;;;;;;9.07;5.80;;;;;;;4.00;100.00;100015.41;6101639;28;20422;-89
2023/04/14 00:40:04;;;;;;;9.27;6.43;;;;;;;3.97;100.00;100018.13;6123993;28;20048;-89
2023/04/14 00:43:05;;;;;;;8.55;5.90;;;;;;;3.89;100.00;100015.22;6126875;28;20044;-89
2023/04/14 00:46:07;;;;;;;11.27;6.03;;;;;;;3.86;100.00;100021.34;6137451;28;20114;-89
2023/04/14 00:49:09;;;;;;;9.93;6.15;;;;;;;3.82;100.00;100029.28;6116586;28;20055;-90
2023/04/14 00:52:11;;;;;;;9.70;5.93;;;;;;;3.81;100.00;100030.22;6104701;28;20052;-90
2023/04/14 00:55:15;;;;;;;9.43;5.57;;;;;;;3.78;100.00;100036.34;6115008;28;20047;-90
2023/04/14 00:58:17;;;;;;;11.05;5.68;;;;;;;3.77;100.00;100029.56;6114872;28;20796;-90
2023/04/14 01:01:19;;;;;;;9.35;6.28;;;;;;;3.73;100.00;100033.22;6126987;28;20174;-89
2023/04/14 01:04:21;;;;;;;9.50;5.82;;;;;;;3.72;100.00;100035.84;6125971;28;20050;-89
2023/04/14 01:07:25;;;;;;;10.05;6.03;;;;;;;3.67;100.00;100031.00;6128680;28;20066;-89
2023/04/14 01:10:37;;;;;;;7.25;5.45;;;;;;;3.62;100.00;100036.38;6133026;28;20047;-90
2023/04/14 01:13:58;;;;;;;8.05;5.40;;;;;;;3.57;100.00;100028.16;6103605;28;20062;-90
2023/04/14 01:17:43;;;;;;;8.60;5.68;;;;;;;3.53;100.00;100026.69;6136443;28;20560;-89
2023/04/14 01:20:50;;;;;;;8.43;5.53;;;;;;;3.43;100.00;100017.91;6107286;28;20052;-88
2023/04/14 01:24:11;;;;;;;8.07;5.15;;;;;;;3.44;100.00;100022.91;6123624;28;20070;-89
2023/04/14 01:27:51;;;;;;;7.85;5.63;;;;;;;3.40;100.00;100018.91;6132330;28;20751;-89
2023/04/14 01:31:11;;;;;;;9.18;5.63;;;;;;;3.33;100.00;100019.31;6125068;28;20071;-88
2023/04/14 01:34:21;;;;;;;9.00;5.23;;;;;;;3.25;100.00;100017.22;6096183;28;20048;-89
2023/04/14 01:37:43;;;;;;;8.07;5.30;;;;;;;3.22;100.00;100018.22;6131197;28;20075;-89
2023/04/14 01:40:50;;;;;;;8.20;5.25;;;;;;;3.20;100.00;100029.44;6121240;28;20050;-89
2023/04/14 01:43:54;;;;;;;7.85;5.22;;;;;;;3.28;100.00;100023.88;6107078;28;20059;-89
2023/04/14 01:47:01;;;;;;;9.23;5.95;;;;;;;3.29;100.00;100033.22;6100960;28;20047;-89
2023/04/14 01:50:05;;;;;;;8.93;5.30;;;;;;;3.26;100.00;100026.53;6120251;28;20047;-89
2023/04/14 01:53:11;;;;;;;9.30;6.28;;;;;;;3.27;100.00;100035.84;6104116;28;20552;-89
2023/04/14 01:56:16;;;;;;;10.35;5.40;;;;;;;3.24;100.00;100031.72;6116826;28;20052;-89
2023/04/14 01:59:21;;;;;;;9.00;5.60;;;;;;;3.17;100.00;100037.28;6097538;28;20079;-89
2023/04/14 02:02:24;;;;;;;8.02;5.60;;;;;;;3.04;100.00;100032.03;6124394;28;20079;-89
2023/04/14 02:05:28;;;;;;;8.50;5.63;;;;;;;3.04;100.00;100034.59;6116605;29;20054;-89
2023/04/14 02:08:31;;;;;;;9.63;5.35;;;;;;;2.98;100.00;100037.47;6119645;28;20044;-90
2023/04/14 02:11:35;;;;;;;7.38;5.47;;;;;;;2.94;100.00;100038.56;6126220;28;20426;-89
2023/04/14 02:14:45;;;;;;;10.20;5.63;;;;;;;2.90;100.00;100029.41;6130525;28;20047;-89
2023/04/14 02:17:49;;;;;;;8.37;5.73;;;;;;;2.87;100.00;100030.41;6118599;28;20047;-89
2023/04/14 02:20:53;;;;;;;8.15;5.68;;;;;;;2.86;100.00;100030.47;6119510;28;20642;-89
2023/04/14 02:23:55;;;;;;;9.82;6.47;;;;;;;2.78;100.00;100026.63;6109708;28;20727;-89
2023/04/14 02:27:07;;;;;;;11.00;6.03;;;;;;;2.71;100.00;100027.06;6116117;28;20501;-89
2023/04/14 02:30:23;;;;;;;10.63;5.68;;;;;;;2.74;100.00;100026.88;6129032;28;20047;-89
2023/04/14 02:33:30;;;;;;;12.63;5.55;;;;;;;2.68;100.00;100027.19;6106428;28;20052;-89
2023/04/14 02:36:52;;;;;;;11.35;6.35;;;;;;;2.66;100.00;100026.44;6112110;29;20055;-89
2023/04/14 02:40:06;;;;;;;8.73;6.18;;;;;;;2.65;100.00;100040.97;6119489;28;20410;-89
2023/04/14 02:43:17;;;;;;;10.50;6.18;;;;;;;2.67;100.00;100046.81;6107552;28;20083;-89
2023/04/14 02:46:23;;;;;;;8.73;5.90;;;;;;;2.64;100.00;100044.44;6127725;28;20062;-89
2023/04/14 02:49:26;;;;;;;12.40;6.30;;;;;;;2.57;100.00;100049.03;6111117;28;20059;-89
2023/04/14 02:52:31;;;;;;;10.23;6.72;;;;;;;2.53;100.00;100039.88;6109514;28;20040;-89
2023/04/14 02:55:33;;;;;;;11.65;6.72;;;;;;;2.52;100.00;100042.53;6100569;28;20059;-89
2023/04/14 02:58:36;;;;;;;11.32;6.78;;;;;;;2.52;100.00;100043.34;6129924;28;20146;-89
2023/04/14 03:01:39;;;;;;;10.77;5.97;;;;;;;2.53;100.00;100041.63;6114590;28;20043;-89
2023/04/14 03:04:42;;;;;;;8.68;5.32;;;;;;;2.46;100.00;100042.84;6111040;28;20524;-89
2023/04/14 03:07:56;;;;;;;9.38;6.32;;;;;;;2.40;100.00;100033.78;6118958;28;20558;-89
2023/04/14 03:10:59;;;;;;;12.57;6.90;;;;;;;2.39;100.00;100037.25;6124296;28;20054;-89
2023/04/14 03:14:03;;;;;;;11.20;6.25;;;;;;;2.40;100.00;100038.91;6104531;28;20056;-89
2023/04/14 03:17:06;;;;;;;10.45;6.47;;;;;;;2.41;100.00;100039.72;6111015;28;20536;-89
2023/04/14 03:20:09;;;;;;;8.88;5.93;;;;;;;2.39;100.00;100041.56;6117704;28;20138;-89
2023/04/14 03:23:12;;;;;;;13.55;5.97;;;;;;;2.34;100.00;100042.63;6111897;29;20092;-89
2023/04/14 03:26:24;;;;;;;11.57;6.35;;;;;;;2.25;100.00;100053.31;6106878;29;20062;-89
2023/04/14 03:29:30;;;;;;;8.52;6.18;;;;;;;2.21;100.00;100054.38;6104282;28;20055;-90
2023/04/14 03:32:40;;;;;;;10.98;5.82;;;;;;;2.23;100.00;100050.00;6103881;28;20118;-89
2023/04/14 03:35:45;;;;;;;10.20;6.10;;;;;;;2.18;100.00;100049.41;6118351;28;20047;-89
2023/04/14 03:38:48;;;;;;;9.63;5.97;;;;;;;2.18;100.00;100057.06;6135759;28;20078;-89
2023/04/14 03:41:54;;;;;;;8.85;5.43;;;;;;;2.19;100.00;100058.75;6119241;28;20051;-89
2023/04/14 03:44:57;;;;;;;9.13;5.90;;;;;;;2.15;100.00;100049.56;6110323;28;20178;-89
2023/04/14 03:48:02;;;;;;;9.02;5.60;;;;;;;2.12;100.00;100048.00;6093452;28;20530;-89
2023/04/14 03:51:13;;;;;;;11.13;5.63;;;;;;;2.11;100.00;100050.63;6128420;28;20043;-89
2023/04/14 03:54:18;;;;;;;11.10;6.93;;;;;;;2.05;100.00;100053.50;6103270;28;20384;-89
2023/04/14 03:57:22;;;;;;;7.57;5.18;;;;;;;2.02;100.00;100051.13;6123535;28;20218;-89
2023/04/14 04:00:26;;;;;;;8.10;5.50;;;;;;;2.08;100.00;100050.78;6101188;29;20223;-89
2023/04/14 04:03:30;;;;;;;11.30;6.85;;;;;;;1.96;100.00;100065.00;6099648;28;20478;-89
2023/04/14 04:06:32;;;;;;;12.55;6.15;;;;;;;2.07;100.00;100069.56;6121132;28;20347;-89
2023/04/14 04:09:37;;;;;;;12.10;7.28;;;;;;;2.12;100.00;100065.88;6096667;28;20339;-89
2023/04/14 04:12:42;;;;;;;8.85;5.95;;;;;;;2.16;100.00;100061.44;6114352;28;20063;-89
2023/04/14 04:15:47;;;;;;;12.90;6.85;;;;;;;2.14;100.00;100058.97;6118535;28;21111;-89
2023/04/14 04:18:49;;;;;;;10.32;6.53;;;;;;;2.05;100.00;100066.28;6100063;28;20050;-89
2023/04/14 04:21:59;;;;;;;9.50;6.30;;;;;;;2.03;100.00;100068.06;6098563;28;20051;-89
2023/04/14 04:25:03;;;;;;;8.02;5.53;;;;;;;2.05;100.00;100072.19;6116330;28;20048;-89
2023/04/14 04:28:08;;;;;;;9.52;5.85;;;;;;;2.01;100.00;100070.69;6110145;29;20358;-89
2023/04/14 04:31:12;;;;;;;9.35;6.38;;;;;;;2.04;100.00;100073.13;6103320;29;20226;-89
2023/04/14 04:34:18;;;;;;;10.05;6.68;;;;;;;1.99;100.00;100071.69;6101496;28;20042;-89
2023/04/14 04:37:21;;;;;;;11.48;7.05;;;;;;;1.99;100.00;100084.44;6112541;28;20517;-89
2023/04/14 04:40:23;;;;;;;11.23;6.68;;;;;;;2.01;100.00;100075.78;6098160;28;20058;-89
2023/04/14 04:43:26;;;;;;;10.70;6.55;;;;;;;1.99;100.00;100079.34;6109688;28;20044;-89
2023/04/14 04:46:55;;;;;;;12.95;7.50;;;;;;;2.03;100.00;100080.84;6099135;28;20422;-89
2023/04/14 04:50:03;;;;;;;12.07;6.28;;;;;;;2.06;100.00;100078.13;6105863;28;20039;-89
2023/04/14 04:53:05;;;;;;;11.02;6.65;;;;;;;2.11;100.00;100083.81;6096137;28;20053;-89
2023/04/14 04:56:09;;;;;;;13.57;7.47;;;;;;;2.13;100.00;100089.66;6103015;28;20054;-89
2023/04/14 04:59:11;;;;;;;9.82;6.57;;;;;;;2.18;100.00;100086.88;6120341;28;20074;-88
2023/04/14 05:02:12;;;;;;;13.75;7.28;;;;;;;2.19;100.00;100091.09;6124939;28;20047;-89
2023/04/14 05:05:14;;;;;;;11.75;7.28;;;;;;;2.12;100.00;100113.56;6122841;28;20036;-89
2023/04/14 05:08:16;;;;;;;12.40;6.22;;;;;;;2.09;100.00;100116.28;6117595;28;20498;-89
2023/04/14 05:11:18;;;;;;;9.48;6.18;;;;;;;2.00;100.00;100119.28;6123200;28;20048;-89
2023/04/14 05:14:19;;;;;;;9.95;6.25;;;;;;;2.03;100.00;100107.19;6130971;28;20043;-89
2023/04/14 05:17:21;;;;;;;10.45;5.60;;;;;;;1.93;100.00;100111.09;6126280;28;20288;-89
2023/04/14 05:20:23;;;;;;;9.75;6.47;;;;;;;1.91;100.00;100120.56;6116567;28;20039;-89
2023/04/14 05:23:25;;;;;;;11.10;6.45;;;;;;;2.00;100.00;100111.63;6123233;28;20047;-89
2023/04/14 05:26:26;;;;;;;8.82;5.95;;;;;;;2.09;100.00;100106.88;6119209;28;20051;-89
2023/04/14 05:29:49;;;;;;;11.57;6.60;;;;;;;2.09;100.00;100111.19;6121208;28;20048;-88
2023/04/14 05:32:51;;;;;;;11.52;6.22;;;;;;;2.17;100.00;100113.34;6118744;28;20055;-88
2023/04/14 05:35:53;;;;;;;8.90;5.75;;;;;;;2.27;100.00;100112.78;6119080;28;20071;-89
2023/04/14 05:38:55;;;;;;;10.25;6.00;;;;;;;2.29;100.00;100113.53;6112040;28;20315;-88
2023/04/14 05:41:58;;;;;;;14.57;6.97;;;;;;;2.29;100.00;100118.63;6130129;28;20062;-89
2023/04/14 05:45:00;;;;;;;9.73;6.63;;;;;;;2.35;100.00;100114.94;6126156;28;20094;-88
2023/04/14 05:48:02;;;;;;;9.88;6.82;;;;;;;2.40;100.00;100124.91;6112346;28;20051;-88
2023/04/14 05:51:05;;;;;;;14.50;7.82;;;;;;;2.45;100.00;100112.75;6101996;28;20036;-88
2023/04/14 05:54:07;;;;;;;8.75;6.05;;;;;;;2.45;100.00;100111.00;6124250;28;20045;-89
2023/04/14 05:57:09;;;;;;;9.77;5.88;;;;;;;2.45;100.00;100115.28;6111839;28;20051;-88
2023/04/14 06:00:11;;;;;;;8.95;6.00;;;;;;;2.49;100.00;100114.25;6127792;28;20051;-89
2023/04/14 06:03:16;;;;;;;12.68;7.40;;;;;;;2.55;100.00;100112.16;6126729;28;20036;-88
2023/04/14 06:06:20;;;;;;;8.85;5.57;;;;;;;2.57;100.00;100107.81;6130273;28;20043;-88
2023/04/14 06:09:22;;;;;;;8.85;6.43;;;;;;;2.61;100.00;100121.25;6127385;28;20042;-88
2023/04/14 06:12:24;;;;;;;13.95;6.47;;;;;;;2.68;100.00;100108.97;6140433;28;20053;-88
2023/04/14 06:15:28;;;;;;;8.60;6.57;;;;;;;2.74;100.00;100106.09;6128103;28;20043;-88
2023/04/14 06:18:30;;;;;;;11.93;6.63;;;;;;;2.83;100.00;100105.59;6118315;28;20051;-88
2023/04/14 06:21:32;;;;;;;9.95;6.10;;;;;;;2.91;100.00;100107.75;6132931;28;20043;-88
2023/04/14 06:24:34;;;;;;;10.20;6.60;;;;;;;2.95;100.00;100097.25;6133308;28;20052;-88
2023/04/14 06:27:37;;;;;;;14.07;7.72;;;;;;;2.91;100.00;100102.66;6133347;28;20517;-88
2023/04/14 06:30:39;;;;;;;10.57;7.10;;;;;;;2.99;100.00;100103.88;6138370;28;20430;-88
2023/04/14 06:33:41;;;;;;;11.10;7.28;;;;;;;3.07;100.00;100105.19;6135041;28;20101;-88
2023/04/14 06:36:42;;;;;;;12.70;7.95;;;;;;;3.15;100.00;100106.41;6131544;28;20051;-88
2023/04/14 06:39:44;;;;;;;12.10;7.18;;;;;;;3.24;100.00;100107.66;6140024;28;20043;-88
2023/04/14 06:42:46;;;;;;;11.27;7.45;;;;;;;3.33;100.00;100109.69;6132229;28;20513;-88
2023/04/14 06:45:49;;;;;;;12.32;7.20;;;;;;;3.41;100.00;100111.84;6133505;28;20048;-88
2023/04/14 06:48:51;;;;;;;12.23;7.35;;;;;;;3.50;100.00;100108.72;6139210;28;20101;-88
2023/04/14 06:51:53;;;;;;;13.55;7.95;;;;;;;3.59;100.00;100112.53;6131072;28;20048;-88
2023/04/14 06:54:55;;;;;;;13.85;7.65;;;;;;;3.71;100.00;100122.06;6107022;28;20522;-88
2023/04/14 06:57:57;;;;;;;12.93;7.80;;;;;;;3.77;100.00;100121.69;6123672;28;20494;-88
2023/04/14 07:01:01;;;;;;;11.68;7.50;;;;;;;3.85;100.00;100114.44;6129981;28;20404;-88
2023/04/14 07:04:04;;;;;;;11.80;7.55;;;;;;;3.95;100.00;100109.59;6116012;29;20054;-88
2023/04/14 07:07:08;;;;;;;12.48;7.55;;;;;;;4.08;100.00;100114.81;6119249;28;20059;-88
2023/04/14 07:10:11;;;;;;;14.07;8.63;;;;;;;4.18;100.00;100110.00;6108536;28;20047;-88
2023/04/14 07:13:13;;;;;;;14.55;8.07;;;;;;;4.30;100.00;100115.22;6127981;28;20043;-88
2023/04/14 07:16:15;;;;;;;13.80;8.65;;;;;;;4.40;100.00;100112.09;6125322;28;20395;-88
2023/04/14 07:19:18;;;;;;;11.90;8.00;;;;;;;4.51;100.00;100112.25;6123694;28;20071;-88
2023/04/14 07:22:20;;;;;;;14.30;8.70;;;;;;;4.63;100.00;100111.53;6128879;28;20050;-88
2023/04/14 07:25:22;;;;;;;13.88;8.30;;;;;;;4.80;100.00;100119.94;6131431;28;20043;-88
2023/04/14 07:28:25;;;;;;;14.73;8.30;;;;;;;4.97;100.00;100114.59;6122400;28;20051;-88
2023/04/14 07:31:30;;;;;;;12.23;8.25;;;;;;;5.13;100.00;100117.81;6125162;28;20525;-88
2023/04/14 07:34:32;;;;;;;12.23;7.20;;;;;;;5.20;100.00;100115.69;6136663;28;20043;-88
2023/04/14 07:37:34;;;;;;;12.43;8.13;;;;;;;5.30;100.00;100110.81;6138353;28;20067;-86
2023/04/14 07:40:35;;;;;;;10.90;6.90;;;;;;;5.44;100.00;100118.47;6141670;28;20046;-86
2023/04/14 07:43:40;;;;;;;12.05;6.45;;;;;;;5.62;100.00;100124.16;6122771;28;20050;-86
2023/04/14 07:46:42;;;;;;;13.85;6.80;;;;;;;5.74;100.00;100123.34;6126237;28;20051;-86
2023/04/14 07:49:44;;;;;;;12.95;7.82;;;;;;;5.92;100.00;100123.88;6117808;28;20047;-86
2023/04/14 07:52:45;;;;;;;13.77;6.97;;;;;;;6.05;100.00;100121.34;6118550;28;20167;-86
2023/04/14 07:55:47;;;;;;;14.45;7.05;;;;;;;6.12;100.00;100124.34;6132942;28;20405;-86
2023/04/14 07:58:49;;;;;;;14.18;7.15;;;;;;;6.18;100.00;100122.16;6128869;28;20039;-86
2023/04/14 08:01:50;;;;;;;13.40;7.60;;;;;;;6.32;100.00;100130.72;6136718;28;20125;-86
2023/04/14 08:04:52;;;;;;;11.85;7.10;;;;;;;6.39;100.00;100129.38;6137338;28;20069;-86
2023/04/14 08:07:54;;;;;;;11.48;6.07;;;;;;;6.48;100.00;100126.16;6135117;28;20408;-86
2023/04/14 08:10:56;;;;;;;13.60;7.40;;;;;;;6.63;100.00;100122.56;6119994;28;20074;-86
2023/04/14 08:13:58;;;;;;;12.50;7.35;;;;;;;6.76;100.00;100129.38;6112455;28;20043;-87
2023/04/14 08:17:00;;;;;;;6.13;3.70;;;;;;;6.92;100.00;100117.13;6137636;28;20042;-86
2023/04/14 08:20:01;;;;;;;9.25;4.25;;;;;;;7.14;100.00;100119.00;6132873;28;20554;-86
2023/04/14 08:23:03;;;;;;;5.90;3.67;;;;;;;7.33;100.00;100110.78;6117962;28;20051;-86
2023/04/14 08:26:05;;;;;;;5.47;3.05;;;;;;;7.49;100.00;100106.16;6128437;28;20513;-86
2023/04/14 08:29:07;;;;;;;8.23;3.55;;;;;;;7.71;100.00;100109.75;6128170;28;20123;-86
2023/04/14 08:32:09;;;;;;;6.07;3.53;;;;;;;7.73;100.00;100100.16;6124120;28;20448;-86
2023/04/14 08:35:11;;;;;;;8.73;4.15;;;;;;;7.89;100.00;100098.06;6110687;28;20051;-86
2023/04/14 08:38:32;;;;;;;5.82;3.80;;;;;;;8.05;100.00;100097.75;6128585;28;20054;-86
2023/04/14 08:41:37;;;;;;;6.90;3.08;;;;;;;8.13;100.00;100104.91;6109575;28;20052;-86
2023/04/14 08:44:39;;;;;;;6.70;3.28;;;;;;;8.17;100.00;100095.97;6127395;28;20548;-86
2023/04/14 08:47:44;;;;;;;7.43;4.10;;;;;;;8.31;100.00;100103.50;6133548;28;20519;-86
2023/04/14 08:51:12;;;;;;;6.63;4.53;;;;;;;8.37;100.00;100092.72;6126762;28;20048;-86
2023/04/14 08:54:15;;;;;;;8.90;4.75;;;;;;;8.38;100.00;100096.94;6120300;28;20047;-86
2023/04/14 08:57:19;;;;;;;6.45;4.65;;;;;;;8.52;100.00;100095.06;6127356;28;20053;-86
2023/04/14 09:00:21;;;;;;;10.32;4.28;;;;;;;8.66;100.00;100094.81;6122955;28;20444;-86
2023/04/14 09:03:24;;;;;;;6.43;4.03;;;;;;;8.91;100.00;100092.91;6128102;28;20188;-87
2023/04/14 09:06:27;;;;;;;8.52;4.22;;;;;;;9.09;100.00;100086.28;6128612;28;20222;-86
2023/04/14 09:09:30;;;;;;;6.75;3.95;;;;;;;9.15;100.00;100087.56;6127652;28;20055;-86
2023/04/14 09:12:32;;;;;;;9.93;4.43;;;;;;;9.49;100.00;100085.66;6121961;29;20055;-86
2023/04/14 09:15:35;;;;;;;6.80;3.88;;;;;;;9.93;100.00;100089.72;6136367;28;20050;-86
2023/04/14 09:18:38;;;;;;;6.88;3.53;;;;;;;10.41;100.00;100095.28;6100881;28;20055;-86
2023/04/14 09:21:42;;;;;;;7.50;3.47;;;;;;;10.89;100.00;100089.44;6133605;28;20079;-86
2023/04/14 09:24:56;;;;;;;7.18;3.00;;;;;;;11.27;100.00;100088.63;6104729;29;20539;-86
2023/04/14 09:27:58;;;;;;;6.47;3.00;;;;;;;11.58;100.00;100085.91;6104088;28;20043;-86
2023/04/14 09:31:00;;;;;;;4.70;2.60;;;;;;;11.70;100.00;100081.38;6120417;28;20489;-86
2023/04/14 09:34:02;;;;;;;5.50;2.65;;;;;;;11.70;100.00;100078.78;6118329;28;20043;-86
2023/04/14 09:37:07;;;;;;;5.70;2.33;;;;;;;11.74;100.00;100073.19;6132975;28;20451;-86
2023/04/14 09:40:10;;;;;;;5.05;2.50;;;;;;;11.88;100.00;100073.75;6134081;28;20966;-86
2023/04/14 09:43:24;;;;;;;4.03;1.92;;;;;;;11.86;100.00;100058.28;6118959;28;20720;-86
2023/04/14 09:46:25;;;;;;;4.63;1.65;;;;;;;11.91;100.00;100060.47;6119956;28;20052;-86
2023/04/14 09:49:28;;;;;;;4.03;1.83;;;;;;;12.01;100.00;100061.25;6133371;28;20089;-86
2023/04/14 09:52:42;;;;;;;7.35;1.67;;;;;;;11.95;100.00;100061.81;6127173;28;20040;-86
2023/04/14 09:55:51;;;;;;;4.95;1.98;;;;;;;12.08;100.00;100059.75;6128597;28;20495;-86
2023/04/14 09:58:57;;;;;;;3.42;1.90;;;;;;;12.33;100.00;100062.66;6127516;28;20052;-86
2023/04/14 10:02:04;;;;;;;3.03;1.88;;;;;;;12.25;100.00;100053.00;6130181;28;20569;-86
2023/04/14 10:05:07;;;;;;;5.72;2.20;;;;;;;12.27;100.00;100045.84;6111913;28;20059;-86
2023/04/14 10:08:09;;;;;;;3.33;1.80;;;;;;;12.27;100.00;100051.03;6111868;28;20062;-86
2023/04/14 10:11:29;;;;;;;5.30;1.70;;;;;;;12.15;100.00;100050.44;6115318;28;20179;-87
2023/04/14 10:14:32;;;;;;;6.00;2.38;;;;;;;12.02;100.00;100044.72;6136148;28;20498;-87
2023/04/14 10:17:36;;;;;;;2.97;1.60;;;;;;;11.92;100.00;100043.94;6124696;28;20055;-87
2023/04/14 10:20:38;;;;;;;3.78;1.55;;;;;;;11.92;100.00;100038.75;6104983;28;20047;-87
2023/04/14 10:23:41;;;;;;;3.28;1.55;;;;;;;12.00;100.00;100047.50;6125907;28;20158;-87
2023/04/14 10:26:46;;;;;;;4.78;1.60;;;;;;;12.13;100.00;100039.38;6128793;28;20573;-87
2023/04/14 10:29:48;;;;;;;7.60;2.08;;;;;;;12.28;100.00;100043.13;6129438;28;20581;-87
2023/04/14 10:32:50;;;;;;;2.70;1.60;;;;;;;12.53;100.00;100038.22;6102860;28;20352;-87
2023/04/14 10:35:58;;;;;;;3.42;1.67;;;;;;;12.86;100.00;100031.56;6132095;28;20179;-87
2023/04/14 10:39:04;;;;;;;3.13;1.95;;;;;;;13.26;100.00;100021.66;6134777;28;20047;-87
2023/04/14 10:42:06;;;;;;;4.07;1.77;;;;;;;13.57;100.00;100025.50;6105397;28;20050;-87
2023/04/14 10:45:09;;;;;;;3.42;1.60;;;;;;;13.83;100.00;100019.47;6134715;28;20047;-87
2023/04/14 10:48:11;;;;;;;4.88;1.88;;;;;;;14.04;100.00;100024.28;6124103;28;20050;-87
2023/04/14 10:51:16;;;;;;;2.67;1.55;;;;;;;14.19;100.00;100038.34;6137093;28;20050;-87
2023/04/14 10:54:18;;;;;;;2.83;1.77;;;;;;;14.33;100.00;100026.50;6120290;28;20537;-87
2023/04/14 10:57:25;;;;;;;3.20;1.90;;;;;;;14.46;100.00;100022.63;6123565;28;20051;-87
2023/04/14 11:00:30;;;;;;;5.10;1.52;;;;;;;14.70;100.00;100021.91;6130331;28;20054;-87
2023/04/14 11:03:42;;;;;;;5.35;1.92;;;;;;;14.55;100.00;100019.13;6112471;28;20053;-87
2023/04/14 11:06:51;;;;;;;2.03;1.40;;;;;;;14.17;100.00;100021.25;6120482;28;20170;-87
2023/04/14 11:09:59;;;;;;;3.42;1.48;;;;;;;14.14;100.00;100019.78;6115174;28;20048;-87
2023/04/14 11:13:06;;;;;;;3.42;1.83;;;;;;;14.04;100.00;100008.69;6134608;28;20047;-87
2023/04/14 11:16:09;;;;;;;5.00;2.00;;;;;;;13.83;100.00;99998.66;6134343;28;20167;-87
2023/04/14 11:19:14;;;;;;;2.00;1.65;;;;;;;13.74;100.00;100000.41;6128899;28;20054;-87
2023/04/14 11:22:36;;;;;;;3.42;1.55;;;;;;;13.79;100.00;100002.53;6102724;28;20048;-87
2023/04/14 11:25:39;;;;;;;5.63;2.05;;;;;;;13.70;100.00;100004.28;6128905;28;20414;-88
2023/04/14 11:28:42;;;;;;;2.58;1.50;;;;;;;13.58;100.00;100001.13;6112694;28;20035;-88
2023/04/14 11:31:45;;;;;;;3.63;1.42;;;;;;;13.53;100.00;100005.97;6138832;28;20437;-88
2023/04/14 11:34:47;;;;;;;3.80;1.70;;;;;;;13.74;100.00;99997.00;6137574;28;20079;-87
2023/04/14 11:37:53;;;;;;;6.22;1.95;;;;;;;13.98;100.00;100004.09;6139277;28;20051;-87
2023/04/14 11:40:57;;;;;;;4.43;1.90;;;;;;;14.19;100.00;99993.28;6128323;28;20134;-88
2023/04/14 11:43:59;;;;;;;2.20;1.50;;;;;;;14.38;100.00;99998.22;6113132;28;20050;-87
2023/04/14 11:47:03;;;;;;;4.05;2.20;;;;;;;14.53;100.00;99985.41;6127767;28;20314;-88
2023/04/14 11:50:06;;;;;;;3.92;2.75;;;;;;;14.69;100.00;99995.06;6121840;28;20046;-88
2023/04/14 11:53:11;;;;;;;4.30;2.03;;;;;;;14.99;100.00;99990.19;6120246;28;20043;-88
2023/04/14 11:56:14;;;;;;;4.50;2.08;;;;;;;15.32;100.00;99985.75;6136650;28;20588;-88
2023/04/14 11:59:16;;;;;;;3.22;1.92;;;;;;;15.48;96.58;99984.94;6149930;28;20553;-88
2023/04/14 12:02:21;;;;;;;3.80;2.05;;;;;;;15.58;96.66;99990.78;6134191;28;20039;-88
2023/04/14 12:05:28;;;;;;;4.35;2.38;;;;;;;15.75;95.05;99983.75;6135625;28;20043;-89
2023/04/14 12:08:32;;;;;;;3.33;2.15;;;;;;;15.88;86.86;99981.41;6135343;28;20499;-89
2023/04/14 12:11:34;;;;;;;4.75;2.35;;;;;;;15.97;88.96;99979.56;6130490;28;20402;-88
2023/04/14 12:14:38;;;;;;;2.88;1.70;;;;;;;16.02;95.31;99976.44;6124165;28;20038;-88
2023/04/14 12:17:41;;;;;;;4.47;2.00;;;;;;;16.12;96.17;99977.06;6116605;28;20051;-89
2023/04/14 12:20:55;;;;;;;3.67;1.92;;;;;;;16.19;94.78;99980.59;6120445;28;20036;-88
2023/04/14 12:23:56;;;;;;;4.60;2.67;;;;;;;15.99;100.00;99966.34;6130571;28;20073;-88
2023/04/14 12:26:58;;;;;;;4.68;2.00;;;;;;;15.82;100.00;99963.81;6099898;28;20040;-88
2023/04/14 12:30:00;;;;;;;3.50;1.90;;;;;;;15.49;99.48;99963.06;6094457;29;20154;-88
2023/04/14 12:33:14;;;;;;;3.63;1.85;;;;;;;15.27;100.00;99952.34;6131983;28;20035;-88
2023/04/14 12:36:16;;;;;;;2.50;1.70;;;;;;;15.12;100.00;99945.38;6135780;28;20520;-88
2023/04/14 12:39:20;;;;;;;10.02;4.25;;;;;;;15.05;100.00;99947.81;6136754;28;20837;-88
2023/04/14 12:42:28;;;;;;;6.20;2.35;;;;;;;15.00;96.49;99942.28;6126456;28;20047;-88
2023/04/14 12:45:43;;;;;;;2.85;2.10;;;;;;;14.98;100.00;99936.41;6137021;28;20042;-88
2023/04/14 12:48:47;;;;;;;4.97;2.40;;;;;;;14.98;98.55;99928.59;6126613;28;20222;-88
2023/04/14 12:51:49;;;;;;;2.28;2.05;;;;;;;15.10;100.00;99927.28;6109424;28;20035;-88
2023/04/14 12:54:51;;;;;;;5.00;1.95;;;;;;;15.26;100.00;99926.47;6121657;28;20483;-88
2023/04/14 12:57:55;;;;;;;5.38;1.90;;;;;;;15.27;99.28;99926.28;6133603;28;20062;-88
2023/04/14 13:00:58;;;;;;;5.00;1.73;;;;;;;15.39;98.50;99911.09;6133460;28;20154;-88
2023/04/14 13:04:00;;;;;;;2.42;1.73;;;;;;;15.21;96.91;99911.31;6131450;28;20431;-89
2023/04/14 13:07:02;;;;;;;4.38;1.90;;;;;;;14.96;95.88;99907.94;6137297;28;20036;-88
2023/04/14 13:10:05;;;;;;;3.40;2.45;;;;;;;14.64;100.00;99904.34;6128221;28;20127;-88
2023/04/14 13:13:07;;;;;;;4.97;3.00;;;;;;;14.42;100.00;99902.38;6130401;28;20135;-88
2023/04/14 13:16:09;;;;;;;4.15;2.30;;;;;;;14.20;100.00;99909.00;6133066;28;20585;-88
2023/04/14 13:19:17;;;;;;;3.33;2.70;;;;;;;14.03;100.00;99904.72;6131973;28;20051;-88
2023/04/14 13:22:19;;;;;;;5.00;2.95;;;;;;;13.89;100.00;99899.19;6128610;28;20044;-88
2023/04/14 13:25:21;;;;;;;5.15;3.15;;;;;;;13.86;100.00;99907.28;6111471;28;20051;-91
2023/04/14 13:28:24;;;;;;;8.02;3.17;;;;;;;13.74;100.00;99903.34;6128965;28;20205;-88
2023/04/14 13:31:26;;;;;;;3.47;2.90;;;;;;;13.69;100.00;99902.97;6126087;28;20503;-88
2023/04/14 13:34:28;;;;;;;4.57;2.80;;;;;;;13.71;100.00;99888.03;6115123;28;20058;-88
2023/04/14 13:37:30;;;;;;;6.13;2.88;;;;;;;13.72;100.00;99897.50;6108954;28;20525;-88
2023/04/14 13:40:32;;;;;;;4.40;2.85;;;;;;;13.73;100.00;99896.50;6123710;28;20039;-88
2023/04/14 13:43:34;;;;;;;4.70;2.97;;;;;;;13.80;100.00;99897.50;6120296;28;20044;-88
2023/04/14 13:46:39;;;;;;;4.93;2.60;;;;;;;13.92;100.00;99896.25;6124452;28;20046;-88
2023/04/14 13:49:42;;;;;;;5.45;3.28;;;;;;;13.99;100.00;99892.03;6127127;28;20055;-89
2023/04/14 13:52:44;;;;;;;5.78;3.42;;;;;;;13.87;100.00;99895.09;6141646;28;20071;-88
2023/04/14 13:55:46;;;;;;;5.18;3.40;;;;;;;13.80;100.00;99889.69;6117073;28;20230;-88
2023/04/14 13:58:48;;;;;;;4.45;3.88;;;;;;;13.70;100.00;99889.84;6123020;28;20061;-88
2023/04/14 14:01:50;;;;;;;5.53;3.70;;;;;;;13.61;100.00;99892.56;6128423;28;20410;-88
2023/04/14 14:04:52;;;;;;;4.80;4.00;;;;;;;13.44;100.00;99887.31;6125491;28;20619;-88
2023/04/14 14:07:55;;;;;;;6.72;4.07;;;;;;;13.27;100.00;99889.00;6117915;28;20054;-88
2023/04/14 14:10:57;;;;;;;4.95;4.30;;;;;;;13.25;100.00;99898.69;6116531;28;20422;-88
2023/04/14 14:13:59;;;;;;;5.95;3.53;;;;;;;13.30;100.00;99896.47;6142196;28;20613;-88